createdAt,value
2018-12-05T00:01:22.011Z,7.87
2018-12-05T00:03:50.449Z,8.53
2018-12-05T00:06:18.485Z,7.72
2018-12-05T00:08:51.142Z,8.30
2018-12-05T00:11:19.594Z,7.62
2018-12-05T00:13:47.921Z,7.20
2018-12-05T00:16:35.437Z,8.75
2018-12-05T00:19:03.484Z,7.83
2018-12-05T00:21:31.537Z,7.30
2018-12-05T00:23:59.828Z,8.03
2018-12-05T00:26:27.845Z,8.65
2018-12-05T00:28:55.884Z,7.75
2018-12-05T00:31:23.968Z,7.67
2018-12-05T00:33:52.012Z,7.53
2018-12-05T00:36:20.443Z,7.83
2018-12-05T00:38:48.500Z,8.20
2018-12-05T00:41:16.532Z,7.35
2018-12-05T00:43:44.616Z,8.58
2018-12-05T00:46:12.662Z,8.25
2018-12-05T00:48:40.716Z,7.03
2018-12-05T00:51:09.004Z,7.40
2018-12-05T00:53:37.050Z,7.80
2018-12-05T00:56:05.336Z,7.78
2018-12-05T00:58:33.575Z,6.97
2018-12-05T01:01:01.610Z,7.15
2018-12-05T01:03:29.684Z,7.35
2018-12-05T01:05:57.741Z,7.70
2018-12-05T01:08:25.789Z,6.85
2018-12-05T01:10:53.832Z,8.48
2018-12-05T01:13:21.895Z,9.00
2018-12-05T01:15:49.926Z,8.43
2018-12-05T01:18:17.969Z,8.13
2018-12-05T01:20:46.020Z,7.62
2018-12-05T01:23:14.049Z,8.20
2018-12-05T01:25:42.151Z,7.97
2018-12-05T01:28:10.246Z,7.80
2018-12-05T01:30:38.299Z,9.03
2018-12-05T01:33:06.755Z,7.47
2018-12-05T01:35:35.249Z,7.75
2018-12-05T01:38:03.301Z,7.72
2018-12-05T01:40:31.361Z,9.35
2018-12-05T01:42:59.409Z,8.28
2018-12-05T01:45:27.456Z,6.92
2018-12-05T01:47:55.852Z,7.90
2018-12-05T01:50:23.886Z,7.35
2018-12-05T01:52:52.224Z,7.70
2018-12-05T01:55:21.320Z,6.75
2018-12-05T01:57:49.360Z,9.10
2018-12-05T02:00:17.823Z,6.45
2018-12-05T02:02:45.931Z,8.00
2018-12-05T02:05:13.962Z,7.40
2018-12-05T02:07:42.009Z,8.70
2018-12-05T02:10:10.045Z,8.83
2018-12-05T02:12:38.524Z,8.40
2018-12-05T02:15:06.578Z,7.08
2018-12-05T02:17:34.624Z,8.23
2018-12-05T02:20:02.673Z,6.55
2018-12-05T02:22:30.707Z,7.97
2018-12-05T02:24:58.758Z,7.28
2018-12-05T02:27:26.809Z,7.75
2018-12-05T02:30:13.980Z,7.15
2018-12-05T02:32:42.045Z,7.45
2018-12-05T02:35:10.087Z,8.05
2018-12-05T02:37:38.137Z,7.17
2018-12-05T02:40:06.990Z,6.78
2018-12-05T02:42:35.052Z,8.90
2018-12-05T02:45:03.092Z,6.45
2018-12-05T02:47:31.561Z,7.35
2018-12-05T02:50:00.405Z,6.08
2018-12-05T02:52:28.876Z,8.08
2018-12-05T02:54:56.922Z,7.83
2018-12-05T02:57:25.377Z,8.63
2018-12-05T02:59:53.803Z,9.45
2018-12-05T03:02:21.836Z,8.08
2018-12-05T03:04:49.901Z,9.73
2018-12-05T03:07:17.933Z,7.95
2018-12-05T03:09:46.323Z,9.58
2018-12-05T03:12:14.362Z,9.28
2018-12-05T03:14:42.795Z,7.67
2018-12-05T03:17:10.888Z,9.25
2018-12-05T03:19:38.953Z,8.48
2018-12-05T03:22:06.979Z,8.98
2018-12-05T03:24:35.398Z,8.53
2018-12-05T03:27:03.444Z,8.70
2018-12-05T03:29:31.483Z,8.78
2018-12-05T03:31:59.974Z,10.68
2018-12-05T03:34:28.032Z,10.10
2018-12-05T03:36:56.055Z,9.65
2018-12-05T03:39:24.106Z,7.90
2018-12-05T03:41:52.138Z,8.93
2018-12-05T03:44:20.204Z,8.53
2018-12-05T03:46:48.669Z,10.13
2018-12-05T03:49:16.730Z,10.60
2018-12-05T03:51:44.788Z,10.60
2018-12-05T03:54:13.246Z,10.20
2018-12-05T03:56:41.316Z,8.95
2018-12-05T03:59:09.349Z,9.98
2018-12-05T04:01:37.392Z,8.65
2018-12-05T04:04:05.440Z,9.90
2018-12-05T04:06:33.482Z,9.98
2018-12-05T04:09:01.511Z,10.03
2018-12-05T04:11:29.557Z,10.38
2018-12-05T04:13:57.586Z,10.05
2018-12-05T04:16:25.628Z,10.08
2018-12-05T04:18:53.922Z,9.58
2018-12-05T04:21:21.966Z,10.93
2018-12-05T04:23:50.059Z,10.80
2018-12-05T04:26:18.118Z,11.30
2018-12-05T04:28:46.194Z,10.93
2018-12-05T04:31:14.253Z,8.10
2018-12-05T04:33:42.306Z,9.35
2018-12-05T04:36:10.349Z,10.50
2018-12-05T04:38:38.427Z,8.40
2018-12-05T04:41:06.437Z,9.83
2018-12-05T04:43:34.486Z,8.98
2018-12-05T04:46:02.529Z,9.40
2018-12-05T04:48:30.623Z,8.30
2018-12-05T04:50:58.642Z,8.13
2018-12-05T04:53:27.109Z,8.88
2018-12-05T04:55:55.155Z,9.60
2018-12-05T04:58:23.182Z,9.80
2018-12-05T05:00:51.258Z,10.85
2018-12-05T05:03:19.319Z,9.90
2018-12-05T05:05:47.437Z,10.15
2018-12-05T05:08:15.462Z,9.95
2018-12-05T05:10:43.524Z,10.20
2018-12-05T05:13:11.572Z,10.00
2018-12-05T05:15:39.718Z,8.98
2018-12-05T05:18:08.118Z,9.28
2018-12-05T05:20:36.910Z,10.58
2018-12-05T05:23:05.341Z,10.32
2018-12-05T05:25:33.390Z,10.45
2018-12-05T05:28:01.815Z,10.05
2018-12-05T05:30:29.855Z,9.60
2018-12-05T05:32:57.875Z,9.63
2018-12-05T05:35:25.907Z,8.70
2018-12-05T05:37:54.106Z,9.15
2018-12-05T05:40:22.067Z,10.88
2018-12-05T05:42:50.533Z,10.05
2018-12-05T05:45:18.585Z,10.08
2018-12-05T05:47:46.631Z,10.55
2018-12-05T05:50:14.691Z,10.23
2018-12-05T05:52:42.732Z,12.05
2018-12-05T05:55:10.784Z,10.38
2018-12-05T05:57:38.869Z,9.90
2018-12-05T06:00:08.064Z,10.23
2018-12-05T06:02:36.471Z,11.40
2018-12-05T06:05:05.436Z,11.03
2018-12-05T06:07:40.919Z,10.10
2018-12-05T06:10:08.973Z,11.15
2018-12-05T06:12:37.077Z,11.48
2018-12-05T06:15:06.750Z,12.68
2018-12-05T06:17:34.888Z,11.12
2018-12-05T06:20:02.974Z,11.78
2018-12-05T06:22:31.008Z,11.15
2018-12-05T06:24:59.128Z,10.80
2018-12-05T06:27:27.105Z,11.90
2018-12-05T06:29:55.173Z,9.93
2018-12-05T06:32:23.222Z,10.65
2018-12-05T06:34:51.307Z,12.35
2018-12-05T06:37:19.782Z,10.25
2018-12-05T06:39:47.872Z,10.03
2018-12-05T06:42:16.392Z,10.20
2018-12-05T06:44:44.806Z,10.38
2018-12-05T06:47:12.867Z,11.25
2018-12-05T06:49:40.914Z,10.15
2018-12-05T06:52:08.996Z,9.33
2018-12-05T06:54:37.033Z,10.82
2018-12-05T06:57:05.129Z,10.58
2018-12-05T06:59:33.520Z,11.78
2018-12-05T07:02:01.575Z,12.45
2018-12-05T07:04:49.340Z,12.43
2018-12-05T07:07:17.739Z,10.70
2018-12-05T07:09:46.169Z,11.28
2018-12-05T07:12:14.218Z,10.82
2018-12-05T07:14:42.261Z,10.45
2018-12-05T07:17:10.332Z,11.50
2018-12-05T07:19:38.370Z,11.40
2018-12-05T07:22:26.170Z,11.30
2018-12-05T07:24:54.241Z,14.25
2018-12-05T07:27:22.352Z,14.05
2018-12-05T07:29:50.393Z,12.90
2018-12-05T07:32:18.459Z,12.07
2018-12-05T07:34:46.860Z,12.80
2018-12-05T07:37:14.921Z,10.70
2018-12-05T07:39:42.959Z,12.55
2018-12-05T07:42:11.391Z,11.45
2018-12-05T07:44:39.443Z,12.20
2018-12-05T07:47:07.914Z,13.95
2018-12-05T07:49:35.963Z,12.65
2018-12-05T07:52:04.022Z,11.78
2018-12-05T07:54:32.050Z,11.48
2018-12-05T07:57:00.113Z,11.53
2018-12-05T07:59:28.148Z,12.03
2018-12-05T08:01:56.206Z,11.35
2018-12-05T08:04:24.241Z,12.03
2018-12-05T08:06:52.550Z,12.00
2018-12-05T08:09:20.587Z,12.47
2018-12-05T08:11:48.616Z,13.83
2018-12-05T08:14:16.632Z,10.58
2018-12-05T08:16:44.690Z,10.53
2018-12-05T08:19:12.725Z,11.30
2018-12-05T08:21:40.787Z,11.55
2018-12-05T08:24:08.861Z,11.85
2018-12-05T08:26:36.994Z,11.25
2018-12-05T08:29:05.035Z,11.45
2018-12-05T08:31:33.444Z,12.03
2018-12-05T08:34:01.490Z,11.18
2018-12-05T08:36:29.530Z,12.03
2018-12-05T08:38:57.574Z,10.95
2018-12-05T08:41:26.085Z,11.93
2018-12-05T08:43:54.136Z,11.40
2018-12-05T08:46:22.192Z,10.55
2018-12-05T08:48:52.112Z,10.50
2018-12-05T08:51:19.159Z,12.05
2018-12-05T08:53:47.565Z,10.53
2018-12-05T08:56:15.616Z,10.45
2018-12-05T08:58:43.674Z,10.65
2018-12-05T09:01:11.770Z,11.48
2018-12-05T09:03:39.828Z,10.38
2018-12-05T09:06:08.306Z,11.70
2018-12-05T09:08:36.375Z,11.12
2018-12-05T09:11:04.406Z,13.65
2018-12-05T09:13:32.460Z,11.35
2018-12-05T09:16:00.948Z,13.03
2018-12-05T09:18:28.987Z,13.30
2018-12-05T09:20:57.035Z,11.88
2018-12-05T09:23:25.084Z,12.25
2018-12-05T09:25:53.381Z,11.10
2018-12-05T09:28:21.804Z,12.40
2018-12-05T09:30:49.852Z,12.20
2018-12-05T09:33:17.885Z,11.83
2018-12-05T09:35:45.949Z,13.00
2018-12-05T09:38:14.023Z,12.55
2018-12-05T09:40:42.069Z,14.33
2018-12-05T09:43:10.129Z,14.38
2018-12-05T09:45:38.189Z,15.75
2018-12-05T09:48:06.272Z,12.25
2018-12-05T09:50:34.364Z,14.68
2018-12-05T09:53:02.443Z,12.35
2018-12-05T09:55:30.490Z,12.45
2018-12-05T09:57:58.556Z,12.47
2018-12-05T10:00:26.602Z,12.55
2018-12-05T10:02:55.081Z,13.72
2018-12-05T10:05:23.155Z,13.60
2018-12-05T10:07:51.211Z,12.63
2018-12-05T10:10:19.249Z,13.55
2018-12-05T10:12:47.321Z,12.65
2018-12-05T10:15:15.363Z,11.45
2018-12-05T10:17:43.437Z,12.07
2018-12-05T10:20:11.521Z,11.20
2018-12-05T10:22:39.587Z,11.50
2018-12-05T10:25:08.031Z,11.68
2018-12-05T10:27:36.095Z,11.28
2018-12-05T10:30:05.283Z,11.05
2018-12-05T10:32:33.344Z,10.10
2018-12-05T10:35:01.394Z,11.45
2018-12-05T10:37:29.856Z,10.60
2018-12-05T10:39:58.359Z,10.18
2018-12-05T10:42:26.423Z,9.80
2018-12-05T10:44:54.858Z,10.73
2018-12-05T10:47:22.925Z,11.48
2018-12-05T10:49:50.977Z,11.18
2018-12-05T10:52:19.028Z,10.60
2018-12-05T10:54:47.457Z,9.17
2018-12-05T10:57:15.519Z,10.37
2018-12-05T10:59:43.563Z,9.65
2018-12-05T11:02:30.743Z,10.73
2018-12-05T11:05:17.960Z,10.13
2018-12-05T11:08:05.187Z,10.13
2018-12-05T11:10:52.391Z,10.03
2018-12-05T11:13:39.605Z,10.17
2018-12-05T11:16:26.780Z,10.20
2018-12-05T11:19:13.990Z,11.33
2018-12-05T11:22:01.201Z,11.10
2018-12-05T11:24:48.786Z,9.97
2018-12-05T11:27:16.865Z,11.35
2018-12-05T11:29:44.917Z,9.30
2018-12-05T11:32:12.984Z,10.40
2018-12-05T11:34:41.460Z,8.50
2018-12-05T11:37:09.497Z,9.83
2018-12-05T11:39:38.170Z,9.63
2018-12-05T11:42:06.646Z,10.10
2018-12-05T11:44:34.695Z,10.30
2018-12-05T11:47:02.751Z,10.40
2018-12-05T11:49:30.811Z,9.80
2018-12-05T11:51:58.858Z,10.37
2018-12-05T11:54:27.362Z,11.23
2018-12-05T11:56:55.791Z,10.47
2018-12-05T11:59:23.890Z,9.23
2018-12-05T12:01:51.940Z,8.70
2018-12-05T12:04:20.374Z,8.90
2018-12-05T12:06:48.422Z,9.83
2018-12-05T12:09:16.486Z,11.40
2018-12-05T12:11:44.555Z,8.63
2018-12-05T12:14:13.073Z,8.43
2018-12-05T12:16:41.110Z,9.20
2018-12-05T12:19:09.162Z,8.30
2018-12-05T12:21:37.245Z,10.33
2018-12-05T12:24:05.312Z,8.87
2018-12-05T12:26:33.638Z,9.37
2018-12-05T12:29:01.404Z,9.67
2018-12-05T12:31:29.830Z,9.27
2018-12-05T12:33:57.926Z,8.27
2018-12-05T12:36:26.021Z,10.63
2018-12-05T12:38:54.111Z,9.03
2018-12-05T12:41:22.163Z,8.97
2018-12-05T12:43:51.103Z,8.80
2018-12-05T12:46:19.434Z,9.50
2018-12-05T12:48:47.711Z,8.00
2018-12-05T12:51:15.779Z,7.03
2018-12-05T12:53:43.828Z,6.67
2018-12-05T12:56:12.258Z,9.50
2018-12-05T12:58:40.688Z,10.23
2018-12-05T13:01:09.114Z,10.77
2018-12-05T13:03:37.632Z,8.63
2018-12-05T13:06:05.692Z,10.10
2018-12-05T13:08:34.215Z,10.07
2018-12-05T13:11:02.279Z,10.93
2018-12-05T13:13:30.341Z,9.63
2018-12-05T13:15:58.818Z,11.73
2018-12-05T13:18:26.882Z,10.20
2018-12-05T13:20:54.981Z,11.57
2018-12-05T13:23:23.052Z,10.50
2018-12-05T13:25:51.132Z,12.43
2018-12-05T13:28:19.202Z,11.43
2018-12-05T13:30:47.669Z,12.50
2018-12-05T13:33:15.729Z,11.47
2018-12-05T13:35:43.806Z,11.87
2018-12-05T13:38:11.878Z,11.40
2018-12-05T13:40:40.379Z,10.27
2018-12-05T13:43:08.440Z,11.37
2018-12-05T13:45:36.872Z,11.30
2018-12-05T13:48:04.932Z,11.17
2018-12-05T13:50:33.423Z,12.07
2018-12-05T13:53:01.523Z,9.20
2018-12-05T13:55:29.945Z,10.47
2018-12-05T13:57:59.376Z,10.63
2018-12-05T14:00:27.440Z,11.30
2018-12-05T14:02:55.506Z,11.33
2018-12-05T14:05:23.602Z,10.47
2018-12-05T14:07:51.667Z,10.10
2018-12-05T14:10:20.112Z,9.47
2018-12-05T14:12:48.182Z,9.63
2018-12-05T14:15:16.253Z,9.60
2018-12-05T14:17:44.360Z,10.73
2018-12-05T14:20:12.468Z,10.27
2018-12-05T14:22:40.520Z,10.27
2018-12-05T14:25:08.995Z,11.27
2018-12-05T14:27:37.124Z,9.67
2018-12-05T14:30:06.462Z,10.50
2018-12-05T14:32:34.513Z,11.13
2018-12-05T14:35:02.571Z,9.60
2018-12-05T14:37:30.631Z,11.33
2018-12-05T14:39:58.698Z,10.10
2018-12-05T14:42:26.756Z,10.10
2018-12-05T14:44:54.843Z,10.20
2018-12-05T14:47:22.931Z,11.10
2018-12-05T14:49:51.006Z,10.67
2018-12-05T14:52:19.103Z,12.10
2018-12-05T14:54:47.209Z,10.37
2018-12-05T14:57:15.252Z,12.00
2018-12-05T14:59:43.732Z,10.70
2018-12-05T15:02:11.843Z,28.33
2018-12-05T15:04:39.909Z,17.10
2018-12-05T15:07:07.963Z,12.97
2018-12-05T15:09:36.050Z,13.27
2018-12-05T15:12:04.212Z,11.50
2018-12-05T15:14:32.205Z,13.83
2018-12-05T15:17:00.264Z,14.23
2018-12-05T15:19:28.774Z,13.20
2018-12-05T15:22:16.287Z,12.73
2018-12-05T15:24:44.448Z,11.07
2018-12-05T15:27:12.468Z,12.77
2018-12-05T15:29:41.050Z,11.77
2018-12-05T15:32:09.091Z,11.27
2018-12-05T15:34:37.142Z,11.70
2018-12-05T15:37:05.213Z,10.67
2018-12-05T15:39:33.700Z,10.93
2018-12-05T15:42:01.774Z,10.53
2018-12-05T15:44:30.286Z,10.97
2018-12-05T15:46:58.356Z,12.20
2018-12-05T15:49:26.433Z,11.20
2018-12-05T15:51:54.484Z,10.60
2018-12-05T15:54:22.965Z,14.97
2018-12-05T15:56:51.653Z,20.10
2018-12-05T15:59:19.870Z,14.53
2018-12-05T16:01:48.310Z,13.18
2018-12-05T16:04:16.362Z,12.80
2018-12-05T16:06:44.729Z,13.03
2018-12-05T16:09:12.789Z,17.10
2018-12-05T16:11:41.300Z,15.15
2018-12-05T16:14:09.402Z,14.05
2018-12-05T16:16:37.492Z,11.85
2018-12-05T16:19:05.529Z,12.80
2018-12-05T16:21:33.598Z,13.38
2018-12-05T16:24:01.966Z,12.47
2018-12-05T16:26:30.182Z,13.90
2018-12-05T16:28:58.252Z,11.37
2018-12-05T16:31:26.393Z,11.12
2018-12-05T16:33:54.479Z,11.60
2018-12-05T16:36:22.563Z,10.37
2018-12-05T16:38:51.305Z,11.37
2018-12-05T16:41:20.194Z,12.15
2018-12-05T16:43:48.348Z,10.80
2018-12-05T16:46:36.395Z,9.07
2018-12-05T16:49:04.610Z,9.90
2018-12-05T16:51:32.748Z,9.00
2018-12-05T16:54:00.806Z,10.75
2018-12-05T16:56:28.901Z,9.50
2018-12-05T16:58:56.983Z,11.45
2018-12-05T17:01:25.039Z,9.85
2018-12-05T17:03:53.686Z,9.08
2018-12-05T17:06:21.734Z,8.38
2018-12-05T17:08:50.288Z,9.50
2018-12-05T17:11:18.379Z,8.23
2018-12-05T17:13:46.449Z,8.85
2018-12-05T17:16:17.991Z,10.30
2018-12-05T17:18:42.611Z,10.32
2018-12-05T17:21:11.064Z,9.77
2018-12-05T17:23:39.159Z,8.60
2018-12-05T17:26:07.668Z,9.40
2018-12-05T17:28:35.738Z,10.10
2018-12-05T17:31:03.896Z,11.12
2018-12-05T17:33:31.965Z,9.28
2018-12-05T17:36:19.511Z,11.37
2018-12-05T17:38:47.993Z,11.78
2018-12-05T17:41:16.054Z,8.43
2018-12-05T17:43:44.112Z,8.60
2018-12-05T17:46:12.200Z,8.18
2018-12-05T17:48:40.258Z,7.60
2018-12-05T17:51:08.788Z,9.25
2018-12-05T17:53:37.233Z,8.43
2018-12-05T17:56:05.741Z,8.58
2018-12-05T17:58:33.803Z,8.63
2018-12-05T18:01:01.892Z,9.18
2018-12-05T18:03:30.868Z,10.20
2018-12-05T18:05:58.977Z,12.10
2018-12-05T18:08:27.402Z,10.28
2018-12-05T18:10:55.504Z,11.08
2018-12-05T18:13:23.954Z,8.35
2018-12-05T18:15:52.013Z,9.03
2018-12-05T18:18:20.080Z,8.63
2018-12-05T18:20:48.129Z,8.30
2018-12-05T18:23:16.200Z,11.38
2018-12-05T18:25:44.277Z,9.40
2018-12-05T18:28:12.347Z,9.25
2018-12-05T18:30:40.499Z,12.47
2018-12-05T18:33:08.578Z,9.43
2018-12-05T18:35:36.690Z,8.55
2018-12-05T18:38:05.206Z,8.33
2018-12-05T18:40:33.671Z,10.45
2018-12-05T18:43:02.167Z,7.35
2018-12-05T18:45:31.341Z,8.20
2018-12-05T18:47:58.311Z,8.20
2018-12-05T18:50:26.755Z,7.30
2018-12-05T18:52:54.820Z,8.35
2018-12-05T18:55:22.929Z,7.40
2018-12-05T18:57:51.025Z,8.28
2018-12-05T19:00:19.104Z,8.25
2018-12-05T19:02:47.221Z,8.75
2018-12-05T19:05:15.282Z,7.72
2018-12-05T19:07:43.381Z,9.35
2018-12-05T19:10:11.447Z,8.05
2018-12-05T19:12:39.531Z,10.95
2018-12-05T19:15:07.584Z,11.05
2018-12-05T19:17:36.113Z,8.90
2018-12-05T19:20:04.204Z,8.20
2018-12-05T19:22:32.422Z,8.28
2018-12-05T19:25:00.406Z,9.88
2018-12-05T19:27:28.488Z,7.58
2018-12-05T19:29:56.561Z,8.50
2018-12-05T19:32:24.624Z,8.15
2018-12-05T19:34:52.708Z,8.65
2018-12-05T19:37:21.204Z,7.40
2018-12-05T19:39:49.405Z,8.28
2018-12-05T19:42:17.407Z,8.10
2018-12-05T19:44:45.494Z,9.30
2018-12-05T19:47:13.565Z,11.45
2018-12-05T19:49:42.070Z,8.60
2018-12-05T19:52:10.126Z,10.20
2018-12-05T19:54:57.685Z,9.78
2018-12-05T19:57:25.755Z,9.68
2018-12-05T19:59:53.834Z,9.93
2018-12-05T20:02:21.963Z,10.85
2018-12-05T20:04:50.022Z,10.25
2018-12-05T20:07:18.569Z,11.05
2018-12-05T20:09:47.075Z,9.08
2018-12-05T20:12:15.569Z,10.43
2018-12-05T20:14:43.939Z,10.20
2018-12-05T20:17:12.045Z,8.20
2018-12-05T20:19:40.108Z,10.53
2018-12-05T20:22:09.038Z,9.20
2018-12-05T20:24:37.161Z,10.45
2018-12-05T20:27:05.236Z,9.98
2018-12-05T20:29:33.313Z,9.83
2018-12-05T20:32:01.424Z,9.20
2018-12-05T20:34:49.978Z,10.15
2018-12-05T20:37:18.048Z,11.78
2018-12-05T20:39:46.129Z,10.70
2018-12-05T20:42:14.595Z,12.28
2018-12-05T20:44:42.671Z,10.23
2018-12-05T20:47:11.134Z,8.13
2018-12-05T20:49:39.212Z,9.55
2018-12-05T20:52:07.337Z,10.28
2018-12-05T20:54:35.411Z,9.80
2018-12-05T20:57:03.533Z,7.95
2018-12-05T20:59:31.613Z,8.95
2018-12-05T21:01:59.691Z,8.40
2018-12-05T21:04:28.174Z,9.03
2018-12-05T21:06:56.311Z,12.63
2018-12-05T21:09:24.521Z,8.73
2018-12-05T21:11:52.603Z,8.73
2018-12-05T21:14:21.246Z,7.50
2018-12-05T21:16:49.326Z,8.25
2018-12-05T21:19:17.431Z,8.70
2018-12-05T21:21:45.530Z,8.93
2018-12-05T21:24:13.671Z,7.50
2018-12-05T21:26:41.774Z,10.38
2018-12-05T21:29:29.337Z,8.23
2018-12-05T21:31:58.275Z,6.55
2018-12-05T21:34:26.368Z,8.83
2018-12-05T21:36:54.455Z,8.90
2018-12-05T21:39:22.533Z,9.63
2018-12-05T21:41:51.039Z,9.00
2018-12-05T21:44:19.545Z,9.75
2018-12-05T21:46:47.596Z,8.08
2018-12-05T21:49:15.734Z,8.83
2018-12-05T21:51:43.803Z,8.53
2018-12-05T21:54:11.990Z,8.30
2018-12-05T21:56:40.018Z,9.90
2018-12-05T21:59:08.089Z,10.03
2018-12-05T22:01:36.133Z,8.65
2018-12-05T22:04:04.646Z,8.90
2018-12-05T22:06:32.706Z,8.30
2018-12-05T22:09:00.750Z,7.65
2018-12-05T22:11:29.240Z,9.40
2018-12-05T22:13:57.314Z,8.68
2018-12-05T22:16:25.377Z,8.88
2018-12-05T22:18:53.528Z,9.40
2018-12-05T22:21:22.038Z,8.73
2018-12-05T22:23:50.095Z,8.20
2018-12-05T22:26:18.144Z,7.40
2018-12-05T22:28:46.207Z,7.20
2018-12-05T22:31:14.283Z,8.00
2018-12-05T22:33:42.338Z,6.97
2018-12-05T22:36:10.548Z,7.65
2018-12-05T22:38:38.678Z,6.95
2018-12-05T22:41:06.738Z,8.23
2018-12-05T22:43:34.809Z,7.95
2018-12-05T22:46:02.862Z,8.00
2018-12-05T22:48:30.911Z,8.00
2018-12-05T22:50:58.979Z,8.13
2018-12-05T22:53:27.034Z,7.80
2018-12-05T22:55:55.225Z,8.33
2018-12-05T22:58:23.305Z,9.73
2018-12-05T23:00:54.646Z,9.20
2018-12-05T23:03:22.734Z,7.90
2018-12-05T23:05:50.799Z,8.78
2018-12-05T23:08:18.855Z,8.25
2018-12-05T23:10:46.933Z,8.18
2018-12-05T23:13:14.991Z,8.63
2018-12-05T23:15:43.029Z,9.05
2018-12-05T23:18:11.067Z,8.25
2018-12-05T23:20:39.131Z,8.90
2018-12-05T23:23:07.201Z,8.83
2018-12-05T23:25:35.276Z,8.43
2018-12-05T23:28:03.442Z,7.67
2018-12-05T23:30:31.529Z,8.80
2018-12-05T23:32:59.572Z,7.75
2018-12-05T23:35:27.670Z,8.63
2018-12-05T23:37:56.129Z,8.50
2018-12-05T23:40:24.190Z,9.20
2018-12-05T23:42:52.518Z,10.50
2018-12-05T23:45:20.568Z,9.55
2018-12-05T23:47:48.607Z,9.30
2018-12-05T23:50:16.681Z,9.48
2018-12-05T23:52:44.720Z,10.72
2018-12-05T23:55:13.126Z,9.10
2018-12-05T23:57:41.439Z,9.55
